Latest Weather Observations for Roebourne Airport

IDW60801

Issued at 5:43 pm WST Thursday 16 August 2018 (issued every 10 minutes, with the page automatically refreshed every 10 minutes)

About weather observations | Map of weather stations | Latest weather observations for WA | Other Formats
Station Details ID: 004090 Name: ROEBOURNE AERO Lat: -20.76 Lon: 117.16 Height: 10.7 m
Data from the previous 72 hours. | See also: Recent months at Roebourne Airport
Date/Time
WST
Temp
°C
App
Temp
°C
Dew
Point
°C
Rel
Hum
%
Delta-T
°C
Wind Press
QNH
hPa
Press
MSL
hPa
Rain since
9am
mm
Dir  Spd
km/h
Gust
km/h
Spd
kts
Gust
kts
16/05:30pm 26.6 21.4 -3.1 14 13.1 NNW 15 20 8 11 1013.1 1013.1 0.0
16/05:00pm 27.7 21.6 -8.0 9 14.5 NNW 17 22 9 12 1013.1 1013.1 0.0
16/04:30pm 28.5 21.9 -8.9 8 15.1 NNW 19 24 10 13 1013.0 1013.0 0.0
16/04:00pm 28.9 22.7 -3.3 12 14.4 N 20 24 11 13 1012.9 1012.9 0.0
16/03:30pm 29.1 22.6 -5.6 10 14.9 NNE 20 30 11 16 1012.9 1012.9 0.0
16/03:00pm 29.3 22.9 -6.8 9 15.2 NNE 19 24 10 13 1013.0 1013.0 0.0
16/02:30pm 30.0 23.9 -7.8 8 15.8 NNE 17 28 9 15 1013.3 1013.3 0.0
16/02:00pm 29.6 23.5 -8.1 8 15.6 NNE 17 22 9 12 1013.6 1013.5 0.0
16/01:30pm 29.7 24.6 -5.1 10 15.2 NE 13 19 7 10 1013.9 1013.8 0.0
16/01:00pm 29.4 24.0 -8.2 8 15.5 NE 13 19 7 10 1014.4 1014.3 0.0
16/12:30pm 30.0 26.1 -1.4 13 14.6 ENE 9 15 5 8 1014.9 1014.8 0.0
16/12:00pm 28.4 25.6 5.3 23 12.0 NE 9 15 5 8 1015.5 1015.4 0.0
16/11:30am 27.9 26.2 6.1 25 11.4 NE 4 9 2 5 1015.9 1015.8 0.0
16/11:00am 26.4 24.1 5.9 27 10.6 NNW 7 13 4 7 1016.4 1016.3 0.0
16/10:30am 25.5 23.6 6.7 30 9.8 NNE 6 9 3 5 1016.7 1016.6 0.0
16/10:00am 24.5 23.3 8.0 35 8.7 NE 4 9 2 5 1017.1 1017.0 0.0
16/09:30am 23.1 21.6 6.8 35 8.4 SE 4 7 2 4 1017.1 1017.0 0.0
16/09:00am 21.3 18.8 4.0 32 8.3 S 6 9 3 5 1016.9 1016.8 0.0
16/08:30am 18.8 16.2 3.0 35 7.3 SSW 6 7 3 4 1016.7 1016.6 0.0
16/08:00am 14.8 13.8 5.6 54 4.4 CALM 0 0 0 0 1016.7 1016.6 0.0
16/07:30am 11.7 10.4 4.2 60 3.4 CALM 0 0 0 0 1016.6 1016.5 0.0
16/07:00am 8.3 6.5 1.2 61 2.9 CALM 0 0 0 0 1016.2 1016.1 0.0
16/06:30am 7.4 5.6 1.5 66 2.4 CALM 0 0 0 0 1015.9 1015.8 0.0
16/06:00am 9.0 7.7 4.0 71 2.2 CALM 0 0 0 0 1015.8 1015.7 0.0
16/05:30am 8.7 6.5 3.5 70 2.2 E 4 6 2 3 1015.5 1015.4 0.0
16/05:00am 8.6 5.6 4.2 74 1.9 E 9 9 5 5 1015.4 1015.3 0.0
16/04:30am 8.3 5.7 3.0 69 2.2 ESE 6 9 3 5 1015.3 1015.2 0.0
16/04:00am 8.6 7.0 2.6 66 2.5 CALM 0 0 0 0 1015.5 1015.4 0.0
16/03:30am 9.4 7.9 3.2 65 2.7 CALM 0 0 0 0 1015.5 1015.4 0.0
16/03:00am 9.6 8.2 3.8 67 2.5 CALM 0 0 0 0 1015.6 1015.5 0.0
16/02:30am 9.8 8.5 4.0 67 2.6 CALM 0 0 0 0 1015.7 1015.6 0.0
16/02:00am 9.9 8.5 3.6 65 2.7 CALM 0 6 0 3 1015.8 1015.7 0.0
16/01:30am 10.1 7.4 2.7 60 3.2 WSW 6 7 3 4 1016.1 1016.0 0.0
16/01:00am 11.9 11.3 7.6 75 2.1 CALM 0 0 0 0 1016.4 1016.3 0.0
16/12:30am 11.6 10.8 6.5 71 2.4 CALM 0 0 0 0 1016.6 1016.5 0.0
16/12:00am 12.2 10.8 5.4 63 3.1 SW 2 7 1 4 1016.8 1016.7 0.0
 
Date/Time
WST
Temp
°C
App
Temp
°C
Dew
Point
°C
Rel
Hum
%
Delta-T
°C
Wind Press
QNH
hPa
Press
MSL
hPa
Rain since
9am
mm
Dir  Spd
km/h
Gust
km/h
Spd
kts
Gust
kts
15/11:30pm 12.7 12.1 7.2 69 2.7 CALM 0 0 0 0 1016.9 1016.8 0.0
15/11:00pm 12.5 10.8 5.7 63 3.2 SW 4 7 2 4 1017.2 1017.1 0.0
15/10:30pm 13.2 12.4 6.5 64 3.2 CALM 0 0 0 0 1017.3 1017.2 0.0
15/10:00pm 14.5 12.5 7.1 61 3.6 WSW 7 9 4 5 1017.3 1017.2 0.0
15/09:30pm 15.8 13.5 9.0 64 3.5 WSW 11 13 6 7 1017.4 1017.3 0.0
15/09:00pm 15.3 12.9 7.1 58 4.0 WSW 9 11 5 6 1017.4 1017.3 0.0
15/08:30pm 17.6 15.9 11.2 66 3.5 W 11 13 6 7 1017.4 1017.3 0.0
15/08:00pm 17.9 16.0 10.5 62 4.0 W 11 13 6 7 1017.1 1017.0 0.0
15/07:30pm 17.9 14.4 1.4 33 7.4 WNW 9 11 5 6 1016.8 1016.7 0.0
15/07:00pm 19.6 15.7 1.1 29 8.3 NW 11 11 6 6 1016.4 1016.3 0.0
15/06:30pm 19.9 15.5 0.4 27 8.7 NNW 13 13 7 7 1016.0 1015.9 0.0
15/06:00pm 22.4 18.0 0.3 23 10.0 N 13 15 7 8 1015.7 1015.6 0.0
15/05:30pm 24.6 18.4 -2.9 16 11.9 N 20 24 11 13 1015.5 1015.4 0.0
15/05:00pm 25.8 19.0 -4.7 13 12.9 N 22 26 12 14 1015.4 1015.3 0.0
15/04:30pm 26.9 20.4 -6.0 11 13.8 N 20 26 11 14 1015.3 1015.2 0.0
15/04:00pm 27.5 20.0 -8.2 9 14.4 NNE 24 28 13 15 1015.2 1015.1 0.0
15/03:30pm 28.3 21.4 -6.2 10 14.6 NNE 22 28 12 15 1015.3 1015.2 0.0
15/03:00pm 28.5 21.2 -10.6 7 15.3 NNE 22 28 12 15 1015.5 1015.4 0.0
15/02:30pm 28.2 20.9 -10.8 7 15.2 NNE 22 28 12 15 1015.9 1015.8 0.0
15/02:00pm 28.2 21.4 -9.1 8 14.9 NNE 20 26 11 14 1016.2 1016.1 0.0
15/01:30pm 28.5 21.9 -8.9 8 15.1 NNE 19 26 10 14 1016.7 1016.6 0.0
15/01:00pm 28.0 21.5 -7.8 9 14.6 NNE 19 26 10 14 1017.1 1017.0 0.0
15/12:30pm 28.6 23.4 -6.0 10 14.7 NE 13 19 7 10 1017.5 1017.4 0.0
15/12:00pm 27.8 22.2 -6.6 10 14.3 ENE 15 24 8 13 1018.0 1017.9 0.0
15/11:30am 28.0 23.4 -4.0 12 14.0 ESE 11 19 6 10 1018.3 1018.2 0.0
15/11:00am 27.0 22.7 -4.8 12 13.6 SE 9 17 5 9 1018.8 1018.7 0.0
15/10:30am 26.4 22.0 -2.3 15 12.8 SSE 11 19 6 10 1019.2 1019.1 0.0
15/10:00am 25.8 20.3 -1.9 16 12.3 S 17 20 9 11 1019.6 1019.5 0.0
15/09:30am 23.9 20.5 2.1 24 10.3 S 9 13 5 7 1019.7 1019.6 0.0
15/09:00am 21.4 18.9 4.9 34 8.1 SSE 7 11 4 6 1019.7 1019.6 0.0
15/08:30am 18.0 16.0 6.2 46 5.8 SSW 6 7 3 4 1019.5 1019.4 0.0
15/08:00am 16.2 14.9 6.1 51 4.9 S 2 6 1 3 1019.3 1019.2 0.0
15/07:59am 15.9 15.0 6.1 52 4.7 CALM 0 6 0 3 1019.3 1019.2 0.0
15/07:30am 10.9 9.7 4.4 64 2.9 CALM 0 4 0 2 1019.2 1019.1 0.0
15/07:00am 7.8 4.8 2.3 68 2.3 WSW 7 9 4 5 1019.0 1018.9 0.0
15/06:30am 7.3 4.9 2.0 69 2.2 S 4 6 2 3 1019.0 1018.9 0.0
15/06:00am 8.6 6.0 3.2 69 2.3 SW 6 9 3 5 1018.6 1018.5 0.0
15/05:30am 8.9 6.2 3.7 70 2.3 SSW 7 9 4 5 1018.4 1018.3 0.0
15/05:00am 8.5 6.1 4.5 76 1.8 WSW 6 9 3 5 1018.2 1018.1 0.0
15/04:30am 8.1 6.6 4.9 80 1.4 WSW 2 7 1 4 1018.2 1018.1 0.0
15/04:00am 7.8 5.7 4.0 77 1.6 SW 4 7 2 4 1018.2 1018.1 0.0
15/03:30am 8.6 6.1 4.6 76 1.8 WSW 7 7 4 4 1018.2 1018.1 0.0
15/03:00am 9.8 8.2 6.5 80 1.5 WSW 4 7 2 4 1018.6 1018.5 0.0
15/02:30am 10.5 8.6 6.8 78 1.7 W 6 7 3 4 1018.6 1018.5 0.0
15/02:00am 11.9 9.9 8.7 81 1.6 SW 9 13 5 7 1018.7 1018.6 0.0
15/01:30am 12.4 9.6 8.7 78 1.8 SW 13 15 7 8 1018.9 1018.8 0.0
15/01:00am 11.9 9.9 8.6 80 1.6 SW 9 13 5 7 1019.1 1019.0 0.0
15/12:30am 10.7 7.3 6.1 73 2.1 SW 13 15 7 8 1019.0 1018.9 0.0
15/12:00am 10.8 8.1 5.6 70 2.4 SSW 9 11 5 6 1019.2 1019.1 0.0
 
Date/Time
WST
Temp
°C
App
Temp
°C
Dew
Point
°C
Rel
Hum
%
Delta-T
°C
Wind Press
QNH
hPa
Press
MSL
hPa
Rain since
9am
mm
Dir  Spd
km/h
Gust
km/h
Spd
kts
Gust
kts
14/11:30pm 10.7 7.5 5.3 69 2.5 SSW 11 13 6 7 1019.3 1019.2 0.0
14/11:00pm 11.7 9.2 6.4 70 2.5 SW 9 13 5 7 1019.4 1019.3 0.0
14/10:30pm 12.2 11.7 7.7 74 2.2 CALM 0 4 0 2 1019.3 1019.2 0.0
14/10:00pm 12.9 11.2 7.4 69 2.7 SSW 6 7 3 4 1019.2 1019.1 0.0
14/09:30pm 13.3 11.4 7.7 69 2.8 SSW 7 7 4 4 1019.3 1019.2 0.0
14/09:00pm 13.4 11.6 7.8 69 2.8 SSW 7 9 4 5 1019.3 1019.2 0.0
14/08:30pm 14.0 13.0 5.4 56 4.0 CALM 0 0 0 0 1019.2 1019.1 0.0
14/08:00pm 15.7 15.6 9.4 66 3.2 CALM 0 0 0 0 1019.0 1018.9 0.0
14/07:30pm 15.9 14.4 8.6 62 3.7 NW 6 6 3 3 1018.8 1018.7 0.0
14/07:00pm 17.9 16.8 10.5 62 4.0 NW 7 7 4 4 1018.5 1018.4 0.0
14/06:30pm 18.4 16.8 10.3 59 4.3 N 9 11 5 6 1018.4 1018.3 0.0
14/06:00pm 19.8 18.2 10.2 54 5.2 N 9 13 5 7 1018.2 1018.1 0.0
14/05:30pm 21.8 18.9 9.7 46 6.5 NNE 15 19 8 10 1018.1 1018.0 0.0
14/05:00pm 22.8 18.4 7.4 37 8.0 NNE 20 26 11 14 1017.9 1017.8 0.0
14/04:30pm 24.0 18.0 5.4 30 9.4 NNE 26 30 14 16 1017.6 1017.5 0.0
14/04:00pm 25.1 17.8 2.5 23 10.9 NNE 30 35 16 19 1017.3 1017.2 0.0
14/03:30pm 25.6 17.8 1.7 21 11.4 NE 32 41 17 22 1017.3 1017.2 0.0
14/03:00pm 25.6 17.9 2.3 22 11.2 NNE 32 39 17 21 1017.4 1017.3 0.0
14/02:30pm 26.3 18.6 0.1 18 12.2 NE 30 37 16 20 1017.8 1017.7 0.0
14/02:00pm 26.2 18.6 0.8 19 11.9 NE 30 39 16 21 1018.2 1018.1 0.0
14/01:30pm 26.2 19.0 0.8 19 12.0 NE 28 35 15 19 1018.7 1018.6 0.0
14/01:00pm 26.0 17.7 -1.7 16 12.4 NE 32 43 17 23 1019.2 1019.1 0.0
14/12:30pm 25.6 17.1 -2.9 15 12.5 NE 32 39 17 21 1019.7 1019.6 0.0
14/12:00pm 25.2 16.7 -3.2 15 12.3 NE 32 39 17 21 1020.1 1020.0 0.0
14/11:30am 26.0 17.6 -2.6 15 12.6 NE 32 43 17 23 1020.4 1020.3 0.0
14/11:00am 25.1 16.8 -1.6 17 11.9 ENE 32 41 17 22 1020.7 1020.6 0.0
14/10:30am 25.0 17.6 -3.4 15 12.3 ENE 26 35 14 19 1021.0 1020.9 0.0
14/10:00am 23.6 16.4 -2.1 18 11.2 ENE 26 32 14 17 1021.3 1021.2 0.0
14/09:30am 22.2 16.3 -0.5 22 10.1 E 20 26 11 14 1021.4 1021.3 0.0
14/09:00am 20.8 15.1 -0.5 24 9.3 ESE 19 22 10 12 1021.5 1021.4 0.0
14/08:30am 17.5 14.4 3.8 40 6.4 ENE 9 13 5 7 1021.4 1021.3 0.0
14/08:00am 15.1 14.0 5.0 51 4.7 CALM 0 0 0 0 1021.2 1021.1 0.0
14/07:30am 12.2 11.1 5.1 62 3.3 CALM 0 0 0 0 1021.1 1021.0 0.0
14/07:00am 7.9 5.3 3.4 73 1.9 SW 6 7 3 4 1021.0 1020.9 0.0
14/06:30am 6.4 3.8 0.9 68 2.2 SSW 4 7 2 4 1020.6 1020.5 0.0
14/06:00am 7.9 4.4 3.6 74 1.8 S 11 13 6 7 1020.3 1020.2 0.0
14/05:30am 8.1 4.7 3.8 74 1.9 SSW 11 11 6 6 1020.1 1020.0 0.0
14/05:00am 7.8 5.0 3.3 73 1.9 SSW 7 9 4 5 1020.0 1019.9 0.0
14/04:30am 9.2 6.9 5.0 75 1.9 SW 6 7 3 4 1019.8 1019.7 0.0
14/04:00am 9.1 6.7 5.3 77 1.7 SW 7 9 4 5 1019.8 1019.7 0.0
14/03:30am 9.6 7.3 5.0 73 2.1 SW 6 9 3 5 1019.8 1019.7 0.0
14/03:00am 9.4 6.8 4.2 70 2.3 SSW 7 9 4 5 1019.9 1019.8 0.0
14/02:30am 9.8 6.6 5.2 73 2.1 SSW 11 11 6 6 1020.1 1020.0 0.0
14/02:00am 10.4 8.1 5.8 73 2.1 SSW 7 9 4 5 1020.3 1020.2 0.0
14/01:30am 10.3 8.1 5.3 71 2.3 SW 6 7 3 4 1020.5 1020.4 0.0
14/01:00am 9.9 7.5 4.3 68 2.5 SW 6 7 3 4 1020.6 1020.5 0.0
14/12:30am 9.0 6.3 2.8 65 2.6 SSW 6 7 3 4 1020.5 1020.4 0.0
14/12:00am 10.7 7.8 4.6 66 2.7 SSW 9 11 5 6 1020.5 1020.4 0.0
 
Date/Time
WST
Temp
°C
App
Temp
°C
Dew
Point
°C
Rel
Hum
%
Delta-T
°C
Wind Press
QNH
hPa
Press
MSL
hPa
Rain since
9am
mm
Dir  Spd
km/h
Gust
km/h
Spd
kts
Gust
kts
13/11:30pm 10.8 8.3 4.9 67 2.7 SW 7 9 4 5 1020.6 1020.5 0.0
13/11:00pm 11.8 8.5 6.3 69 2.6 S 13 13 7 7 1020.6 1020.5 0.0
13/10:30pm 12.7 9.5 6.7 67 2.9 SSW 13 15 7 8 1020.7 1020.6 0.0
13/10:00pm 13.0 11.1 7.5 69 2.7 S 7 11 4 6 1020.6 1020.5 0.0
13/09:30pm 13.2 10.3 6.5 64 3.2 SSE 11 13 6 7 1020.6 1020.5 0.0
13/09:00pm 13.4 11.2 6.3 62 3.4 SE 7 9 4 5 1020.5 1020.4 0.0
13/08:30pm 13.3 10.3 5.9 61 3.5 SSE 11 11 6 6 1020.4 1020.3 0.0
13/08:00pm 13.6 11.2 5.3 57 3.9 SSE 7 13 4 7 1020.2 1020.1 0.0
13/07:30pm 15.8 14.8 7.3 57 4.2 NNW 2 6 1 3 1020.0 1019.9 0.0
13/07:00pm 15.5 14.5 7.3 58 4.0 SW 2 9 1 5 1019.8 1019.7 0.0
13/06:30pm 18.2 16.3 9.0 55 4.8 NNW 9 11 5 6 1019.3 1019.2 0.0
13/06:00pm 19.9 16.6 9.5 51 5.5 N 17 20 9 11 1019.1 1019.0 0.0

Other Formats:

Comma delimited format used in spreadsheet applications
http://www.bom.gov.au/fwo/IDW60801/IDW60801.94308.axf

JavaScript Object Notation format (JSON) in row-major order
http://www.bom.gov.au/fwo/IDW60801/IDW60801.94308.json